createdAt,value
2022-08-01T00:00:13.177Z,86.40
2022-08-01T00:02:42.646Z,86.50
2022-08-01T00:05:12.045Z,86.70
2022-08-01T00:07:41.539Z,87.00
2022-08-01T00:10:14.933Z,86.90
2022-08-01T00:12:45.394Z,87.10
2022-08-01T00:15:16.506Z,87.30
2022-08-01T00:17:45.784Z,87.70
2022-08-01T00:20:15.851Z,87.70
2022-08-01T00:22:45.156Z,87.90
2022-08-01T00:25:14.426Z,88.10
2022-08-01T00:27:43.612Z,88.10
2022-08-01T00:30:14.938Z,88.30
2022-08-01T00:32:44.508Z,88.50
2022-08-01T00:35:14.527Z,88.60
2022-08-01T00:37:45.158Z,88.50
2022-08-01T00:40:14.416Z,88.50
2022-08-01T00:42:43.985Z,88.60
2022-08-01T00:45:13.659Z,88.80
2022-08-01T00:47:43.076Z,88.80
2022-08-01T00:50:12.409Z,88.80
2022-08-01T00:52:43.150Z,88.90
2022-08-01T00:55:21.361Z,89.10
2022-08-01T00:58:03.160Z,89.10
2022-08-01T01:00:52.565Z,89.30
2022-08-01T01:03:43.552Z,89.10
2022-08-01T01:06:27.167Z,88.70
2022-08-01T01:09:34.215Z,88.70
2022-08-01T01:12:09.594Z,88.80
2022-08-01T01:14:55.799Z,88.90
2022-08-01T01:17:51.181Z,89.20
2022-08-01T01:20:25.386Z,89.40
2022-08-01T01:22:54.556Z,89.40
2022-08-01T01:25:35.497Z,89.40
2022-08-01T01:28:31.397Z,89.40
2022-08-01T01:31:01.526Z,89.50
2022-08-01T01:33:33.017Z,89.40
2022-08-01T01:36:07.583Z,89.40
2022-08-01T01:38:45.366Z,89.30
2022-08-01T01:41:18.187Z,89.40
2022-08-01T01:43:48.612Z,89.40
2022-08-01T01:46:23.626Z,89.70
2022-08-01T01:48:53.387Z,89.70
2022-08-01T01:51:24.164Z,89.80
2022-08-01T01:53:55.807Z,90.00
2022-08-01T01:56:25.902Z,90.00
2022-08-01T01:59:00.458Z,90.10
2022-08-01T02:01:58.506Z,90.10
2022-08-01T02:04:22.642Z,90.20
2022-08-01T02:06:56.194Z,90.20
2022-08-01T02:09:28.663Z,90.30
2022-08-01T02:12:08.668Z,90.30
2022-08-01T02:14:59.489Z,90.30
2022-08-01T02:17:29.368Z,90.40
2022-08-01T02:19:58.836Z,90.40
2022-08-01T02:22:36.848Z,90.40
2022-08-01T02:25:23.736Z,90.50
2022-08-01T02:28:09.213Z,90.50
2022-08-01T02:30:42.760Z,90.50
2022-08-01T02:33:24.653Z,90.60
2022-08-01T02:36:28.934Z,90.50
2022-08-01T02:38:48.995Z,90.50
2022-08-01T02:41:22.060Z,90.60
2022-08-01T02:43:54.220Z,90.70
2022-08-01T02:46:37.651Z,90.60
2022-08-01T02:49:10.156Z,90.60
2022-08-01T02:51:41.432Z,90.50
2022-08-01T02:54:11.831Z,90.50
2022-08-01T02:56:42.196Z,90.60
2022-08-01T02:59:18.965Z,90.70
2022-08-01T03:02:02.885Z,90.70
2022-08-01T03:04:34.968Z,90.70
2022-08-01T03:07:07.432Z,90.70
2022-08-01T03:09:40.500Z,91.00
2022-08-01T03:12:14.770Z,90.80
2022-08-01T03:14:46.662Z,90.90
2022-08-01T03:17:19.416Z,90.90
2022-08-01T03:19:49.819Z,90.90
2022-08-01T03:22:25.735Z,91.00
2022-08-01T03:24:56.043Z,91.00
2022-08-01T03:27:26.261Z,91.00
2022-08-01T03:29:57.410Z,91.00
2022-08-01T03:32:29.113Z,91.10
2022-08-01T03:34:59.010Z,91.10
2022-08-01T03:37:36.553Z,91.10
2022-08-01T03:40:17.466Z,91.10
2022-08-01T03:42:57.572Z,91.10
2022-08-01T03:45:32.626Z,91.10
2022-08-01T03:48:07.415Z,91.10
2022-08-01T03:50:40.755Z,91.10
2022-08-01T03:53:11.708Z,91.10
2022-08-01T03:55:42.708Z,91.10
2022-08-01T03:58:12.979Z,91.10
2022-08-01T04:00:43.391Z,91.10
2022-08-01T04:03:14.015Z,91.00
2022-08-01T04:05:44.040Z,91.00
2022-08-01T04:08:13.245Z,91.00
2022-08-01T04:10:42.852Z,90.90
2022-08-01T04:13:12.181Z,90.90
2022-08-01T04:15:41.418Z,90.90
2022-08-01T04:18:11.006Z,91.00
2022-08-01T04:20:40.247Z,90.90
2022-08-01T04:23:12.112Z,90.80
2022-08-01T04:25:43.595Z,90.60
2022-08-01T04:28:17.390Z,90.50
2022-08-01T04:30:50.563Z,90.40
2022-08-01T04:33:21.443Z,90.20
2022-08-01T04:36:04.078Z,90.10
2022-08-01T04:38:37.846Z,90.00
2022-08-01T04:41:09.855Z,89.80
2022-08-01T04:43:39.561Z,89.70
2022-08-01T04:46:09.696Z,89.30
2022-08-01T04:48:40.850Z,89.10
2022-08-01T04:51:16.722Z,88.90
2022-08-01T04:53:46.968Z,88.60
2022-08-01T04:56:16.317Z,88.30
2022-08-01T04:58:45.874Z,88.10
2022-08-01T05:01:15.272Z,87.90
2022-08-01T05:03:45.147Z,87.60
2022-08-01T05:06:14.343Z,87.60
2022-08-01T05:08:43.495Z,87.50
2022-08-01T05:11:12.715Z,87.40
2022-08-01T05:13:41.892Z,87.10
2022-08-01T05:16:11.134Z,87.00
2022-08-01T05:18:40.336Z,86.90
2022-08-01T05:21:09.677Z,86.80
2022-08-01T05:23:43.299Z,86.60
2022-08-01T05:26:14.492Z,86.30
2022-08-01T05:28:44.194Z,86.20
2022-08-01T05:31:13.471Z,86.00
2022-08-01T05:33:42.660Z,85.70
2022-08-01T05:36:11.950Z,85.40
2022-08-01T05:38:41.228Z,85.10
2022-08-01T05:41:11.580Z,84.80
2022-08-01T05:43:40.755Z,84.40
2022-08-01T05:46:10.192Z,84.20
2022-08-01T05:48:39.640Z,84.00
2022-08-01T05:51:08.804Z,83.80
2022-08-01T05:53:38.093Z,83.50
2022-08-01T05:56:07.345Z,83.20
2022-08-01T05:58:36.727Z,83.00
2022-08-01T06:01:05.906Z,82.70
2022-08-01T06:03:35.155Z,82.50
2022-08-01T06:06:04.894Z,82.20
2022-08-01T06:08:34.334Z,82.00
2022-08-01T06:11:03.882Z,81.70
2022-08-01T06:13:33.166Z,81.30
2022-08-01T06:16:15.218Z,80.90
2022-08-01T06:18:44.547Z,80.60
2022-08-01T06:21:21.350Z,80.30
2022-08-01T06:23:50.635Z,80.00
2022-08-01T06:26:20.448Z,79.60
2022-08-01T06:28:49.620Z,79.30
2022-08-01T06:31:18.877Z,78.90
2022-08-01T06:33:48.089Z,78.40
2022-08-01T06:36:17.441Z,78.30
2022-08-01T06:38:46.600Z,78.00
2022-08-01T06:41:15.965Z,77.60
2022-08-01T06:43:45.164Z,77.30
2022-08-01T06:46:14.464Z,77.00
2022-08-01T06:48:43.767Z,76.70
2022-08-01T06:51:16.552Z,76.40
2022-08-01T06:53:45.764Z,75.80
2022-08-01T06:56:14.980Z,75.30
2022-08-01T06:58:44.230Z,75.00
2022-08-01T07:01:13.935Z,74.50
2022-08-01T07:03:52.430Z,73.90
2022-08-01T07:06:25.819Z,73.50
2022-08-01T07:08:55.477Z,73.00
2022-08-01T07:11:25.393Z,72.60
2022-08-01T07:13:54.689Z,72.20
2022-08-01T07:16:24.183Z,71.80
2022-08-01T07:18:53.493Z,71.20
2022-08-01T07:21:39.642Z,70.70
2022-08-01T07:24:15.115Z,70.40
2022-08-01T07:26:53.805Z,69.80
2022-08-01T07:29:27.983Z,69.20
2022-08-01T07:31:58.800Z,68.70
2022-08-01T07:34:28.007Z,68.30
2022-08-01T07:36:57.204Z,67.80
2022-08-01T07:39:26.417Z,66.90
